sensor_id;sensor_type;location;lat;lon;timestamp;P1;durP1;ratioP1;P2;durP2;ratioP2
68523;SDS011;55524;51.380;13.372;2022-12-07T00:01:42;18.55;;;8.02;;
68523;SDS011;55524;51.380;13.372;2022-12-07T00:04:11;17.95;;;8.02;;
68523;SDS011;55524;51.380;13.372;2022-12-07T00:06:40;19.30;;;7.90;;
68523;SDS011;55524;51.380;13.372;2022-12-07T00:09:20;15.98;;;7.55;;
68523;SDS011;55524;51.380;13.372;2022-12-07T00:11:53;19.88;;;8.05;;
68523;SDS011;55524;51.380;13.372;2022-12-07T00:14:19;18.80;;;7.88;;
68523;SDS011;55524;51.380;13.372;2022-12-07T00:16:50;18.88;;;7.78;;
68523;SDS011;55524;51.380;13.372;2022-12-07T00:19:19;21.88;;;7.65;;
68523;SDS011;55524;51.380;13.372;2022-12-07T00:21:48;19.33;;;8.13;;
68523;SDS011;55524;51.380;13.372;2022-12-07T00:24:14;19.95;;;8.07;;
68523;SDS011;55524;51.380;13.372;2022-12-07T00:26:49;19.70;;;8.40;;
68523;SDS011;55524;51.380;13.372;2022-12-07T00:29:17;20.25;;;7.72;;
68523;SDS011;55524;51.380;13.372;2022-12-07T00:31:48;20.08;;;8.38;;
68523;SDS011;55524;51.380;13.372;2022-12-07T00:34:23;21.02;;;8.30;;
68523;SDS011;55524;51.380;13.372;2022-12-07T00:36:49;22.42;;;8.13;;
68523;SDS011;55524;51.380;13.372;2022-12-07T00:39:24;19.33;;;7.55;;
68523;SDS011;55524;51.380;13.372;2022-12-07T00:41:50;22.48;;;8.57;;
68523;SDS011;55524;51.380;13.372;2022-12-07T00:44:25;22.17;;;7.82;;
68523;SDS011;55524;51.380;13.372;2022-12-07T00:46:52;18.77;;;8.15;;
68523;SDS011;55524;51.380;13.372;2022-12-07T00:49:18;21.40;;;7.63;;
68523;SDS011;55524;51.380;13.372;2022-12-07T00:51:48;17.52;;;7.38;;
68523;SDS011;55524;51.380;13.372;2022-12-07T00:54:23;22.85;;;8.65;;
68523;SDS011;55524;51.380;13.372;2022-12-07T00:56:58;22.35;;;7.78;;
68523;SDS011;55524;51.380;13.372;2022-12-07T00:59:30;20.58;;;7.53;;
68523;SDS011;55524;51.380;13.372;2022-12-07T01:02:00;20.73;;;7.47;;
68523;SDS011;55524;51.380;13.372;2022-12-07T01:04:26;23.90;;;8.30;;
68523;SDS011;55524;51.380;13.372;2022-12-07T01:07:02;22.02;;;8.02;;
68523;SDS011;55524;51.380;13.372;2022-12-07T01:09:37;22.38;;;8.30;;
68523;SDS011;55524;51.380;13.372;2022-12-07T01:12:03;20.13;;;7.45;;
68523;SDS011;55524;51.380;13.372;2022-12-07T01:14:32;20.85;;;7.75;;
68523;SDS011;55524;51.380;13.372;2022-12-07T01:16:58;21.15;;;8.13;;
68523;SDS011;55524;51.380;13.372;2022-12-07T01:19:33;23.15;;;7.80;;
68523;SDS011;55524;51.380;13.372;2022-12-07T01:22:00;19.75;;;7.65;;
68523;SDS011;55524;51.380;13.372;2022-12-07T01:24:35;21.35;;;7.85;;
68523;SDS011;55524;51.380;13.372;2022-12-07T01:27:01;20.60;;;7.93;;
68523;SDS011;55524;51.380;13.372;2022-12-07T01:29:39;19.77;;;7.32;;
68523;SDS011;55524;51.380;13.372;2022-12-07T01:32:06;21.42;;;7.80;;
68523;SDS011;55524;51.380;13.372;2022-12-07T01:37:01;21.10;;;7.68;;
68523;SDS011;55524;51.380;13.372;2022-12-07T01:39:36;19.17;;;7.93;;
68523;SDS011;55524;51.380;13.372;2022-12-07T01:42:13;20.50;;;7.72;;
68523;SDS011;55524;51.380;13.372;2022-12-07T01:48:06;20.30;;;7.38;;
68523;SDS011;55524;51.380;13.372;2022-12-07T01:50:39;21.77;;;7.13;;
68523;SDS011;55524;51.380;13.372;2022-12-07T01:53:19;19.50;;;7.32;;
68523;SDS011;55524;51.380;13.372;2022-12-07T01:55:50;20.88;;;8.18;;
68523;SDS011;55524;51.380;13.372;2022-12-07T01:58:21;23.88;;;7.82;;
68523;SDS011;55524;51.380;13.372;2022-12-07T02:00:58;22.30;;;7.75;;
68523;SDS011;55524;51.380;13.372;2022-12-07T02:03:32;19.60;;;7.30;;
68523;SDS011;55524;51.380;13.372;2022-12-07T02:06:04;14.50;;;6.68;;
68523;SDS011;55524;51.380;13.372;2022-12-07T02:08:34;19.80;;;8.10;;
68523;SDS011;55524;51.380;13.372;2022-12-07T02:11:02;17.17;;;7.70;;
68523;SDS011;55524;51.380;13.372;2022-12-07T02:13:32;18.60;;;7.50;;
68523;SDS011;55524;51.380;13.372;2022-12-07T02:21:52;19.83;;;7.40;;
68523;SDS011;55524;51.380;13.372;2022-12-07T02:30:22;15.23;;;7.25;;
68523;SDS011;55524;51.380;13.372;2022-12-07T02:33:11;18.73;;;7.85;;
68523;SDS011;55524;51.380;13.372;2022-12-07T02:36:11;17.33;;;7.60;;
68523;SDS011;55524;51.380;13.372;2022-12-07T02:38:45;17.67;;;7.60;;
68523;SDS011;55524;51.380;13.372;2022-12-07T02:41:39;16.25;;;7.13;;
68523;SDS011;55524;51.380;13.372;2022-12-07T02:44:17;16.38;;;7.10;;
68523;SDS011;55524;51.380;13.372;2022-12-07T02:46:49;16.08;;;7.55;;
68523;SDS011;55524;51.380;13.372;2022-12-07T02:49:22;17.30;;;7.10;;
68523;SDS011;55524;51.380;13.372;2022-12-07T02:51:53;16.77;;;7.57;;
68523;SDS011;55524;51.380;13.372;2022-12-07T02:54:40;17.65;;;7.40;;
68523;SDS011;55524;51.380;13.372;2022-12-07T03:02:46;20.92;;;7.88;;
68523;SDS011;55524;51.380;13.372;2022-12-07T03:11:56;19.33;;;7.85;;
68523;SDS011;55524;51.380;13.372;2022-12-07T03:17:59;16.92;;;7.53;;
68523;SDS011;55524;51.380;13.372;2022-12-07T03:20:28;19.10;;;7.40;;
68523;SDS011;55524;51.380;13.372;2022-12-07T03:23:00;17.85;;;7.95;;
68523;SDS011;55524;51.380;13.372;2022-12-07T03:25:42;19.05;;;7.70;;
68523;SDS011;55524;51.380;13.372;2022-12-07T03:28:18;16.40;;;7.40;;
68523;SDS011;55524;51.380;13.372;2022-12-07T03:31:36;16.98;;;7.90;;
68523;SDS011;55524;51.380;13.372;2022-12-07T03:33:54;19.60;;;8.00;;
68523;SDS011;55524;51.380;13.372;2022-12-07T03:42:10;24.50;;;7.82;;
68523;SDS011;55524;51.380;13.372;2022-12-07T03:45:06;20.00;;;8.32;;
68523;SDS011;55524;51.380;13.372;2022-12-07T06:31:01;8.48;;;4.93;;
68523;SDS011;55524;51.380;13.372;2022-12-07T06:33:28;12.30;;;5.07;;
68523;SDS011;55524;51.380;13.372;2022-12-07T06:35:57;10.80;;;5.38;;
68523;SDS011;55524;51.380;13.372;2022-12-07T06:38:32;11.20;;;5.20;;
68523;SDS011;55524;51.380;13.372;2022-12-07T06:41:07;11.85;;;6.38;;
68523;SDS011;55524;51.380;13.372;2022-12-07T06:43:42;13.70;;;5.50;;
68523;SDS011;55524;51.380;13.372;2022-12-07T06:46:30;12.68;;;5.90;;
68523;SDS011;55524;51.380;13.372;2022-12-07T06:48:56;8.70;;;5.03;;
68523;SDS011;55524;51.380;13.372;2022-12-07T06:51:32;10.18;;;5.20;;
68523;SDS011;55524;51.380;13.372;2022-12-07T06:54:05;9.90;;;5.35;;
68523;SDS011;55524;51.380;13.372;2022-12-07T06:56:42;11.82;;;5.93;;
68523;SDS011;55524;51.380;13.372;2022-12-07T06:59:34;11.10;;;5.63;;
68523;SDS011;55524;51.380;13.372;2022-12-07T07:02:01;12.57;;;5.68;;
68523;SDS011;55524;51.380;13.372;2022-12-07T07:04:47;10.02;;;5.82;;
68523;SDS011;55524;51.380;13.372;2022-12-07T07:07:16;8.23;;;5.25;;
68523;SDS011;55524;51.380;13.372;2022-12-07T07:09:42;10.90;;;5.63;;
68523;SDS011;55524;51.380;13.372;2022-12-07T07:12:09;12.18;;;6.35;;
68523;SDS011;55524;51.380;13.372;2022-12-07T07:14:37;11.93;;;6.10;;
68523;SDS011;55524;51.380;13.372;2022-12-07T07:17:10;11.70;;;6.10;;
68523;SDS011;55524;51.380;13.372;2022-12-07T07:19:36;11.88;;;6.00;;
68523;SDS011;55524;51.380;13.372;2022-12-07T07:22:14;11.45;;;5.85;;
68523;SDS011;55524;51.380;13.372;2022-12-07T07:25:01;13.10;;;5.93;;
68523;SDS011;55524;51.380;13.372;2022-12-07T07:27:30;12.32;;;5.90;;
68523;SDS011;55524;51.380;13.372;2022-12-07T07:29:57;11.27;;;6.07;;
68523;SDS011;55524;51.380;13.372;2022-12-07T07:32:32;11.85;;;6.30;;
68523;SDS011;55524;51.380;13.372;2022-12-07T07:35:01;11.90;;;6.28;;
68523;SDS011;55524;51.380;13.372;2022-12-07T07:37:48;11.43;;;6.20;;
68523;SDS011;55524;51.380;13.372;2022-12-07T07:40:24;16.60;;;7.15;;
68523;SDS011;55524;51.380;13.372;2022-12-07T07:42:51;16.98;;;7.70;;
68523;SDS011;55524;51.380;13.372;2022-12-07T07:45:27;17.60;;;7.63;;
68523;SDS011;55524;51.380;13.372;2022-12-07T07:47:53;17.45;;;7.15;;
68523;SDS011;55524;51.380;13.372;2022-12-07T07:50:20;17.95;;;7.53;;
68523;SDS011;55524;51.380;13.372;2022-12-07T07:52:49;16.38;;;7.78;;
68523;SDS011;55524;51.380;13.372;2022-12-07T07:55:18;17.58;;;8.70;;
68523;SDS011;55524;51.380;13.372;2022-12-07T07:58:05;17.85;;;8.60;;
68523;SDS011;55524;51.380;13.372;2022-12-07T08:00:31;17.42;;;8.13;;
68523;SDS011;55524;51.380;13.372;2022-12-07T08:03:00;15.10;;;7.20;;
68523;SDS011;55524;51.380;13.372;2022-12-07T08:05:29;17.25;;;7.75;;
68523;SDS011;55524;51.380;13.372;2022-12-07T08:07:58;16.80;;;7.88;;
68523;SDS011;55524;51.380;13.372;2022-12-07T08:10:27;12.80;;;6.95;;
68523;SDS011;55524;51.380;13.372;2022-12-07T08:13:02;17.48;;;7.85;;
68523;SDS011;55524;51.380;13.372;2022-12-07T08:15:40;16.33;;;6.97;;
68523;SDS011;55524;51.380;13.372;2022-12-07T08:18:11;15.88;;;6.60;;
68523;SDS011;55524;51.380;13.372;2022-12-07T08:20:39;13.98;;;7.55;;
68523;SDS011;55524;51.380;13.372;2022-12-07T08:23:06;13.68;;;6.85;;
68523;SDS011;55524;51.380;13.372;2022-12-07T08:25:33;15.40;;;7.40;;
68523;SDS011;55524;51.380;13.372;2022-12-07T08:28:00;15.18;;;7.68;;
68523;SDS011;55524;51.380;13.372;2022-12-07T08:30:27;16.90;;;7.72;;
68523;SDS011;55524;51.380;13.372;2022-12-07T08:33:24;16.55;;;7.80;;
68523;SDS011;55524;51.380;13.372;2022-12-07T08:35:51;18.52;;;7.40;;
68523;SDS011;55524;51.380;13.372;2022-12-07T08:38:17;16.75;;;7.28;;
68523;SDS011;55524;51.380;13.372;2022-12-07T08:40:55;15.82;;;7.32;;
68523;SDS011;55524;51.380;13.372;2022-12-07T08:43:23;14.05;;;6.95;;
68523;SDS011;55524;51.380;13.372;2022-12-07T08:48:46;15.82;;;7.45;;
68523;SDS011;55524;51.380;13.372;2022-12-07T08:51:58;14.40;;;6.68;;
68523;SDS011;55524;51.380;13.372;2022-12-07T08:54:29;15.13;;;7.38;;
68523;SDS011;55524;51.380;13.372;2022-12-07T08:56:58;17.17;;;7.38;;
68523;SDS011;55524;51.380;13.372;2022-12-07T08:59:28;12.95;;;6.57;;
68523;SDS011;55524;51.380;13.372;2022-12-07T09:01:55;17.40;;;7.38;;
68523;SDS011;55524;51.380;13.372;2022-12-07T09:04:21;14.25;;;6.57;;
68523;SDS011;55524;51.380;13.372;2022-12-07T09:06:52;17.05;;;7.03;;
68523;SDS011;55524;51.380;13.372;2022-12-07T09:09:22;15.20;;;7.75;;
68523;SDS011;55524;51.380;13.372;2022-12-07T09:11:48;17.90;;;7.90;;
68523;SDS011;55524;51.380;13.372;2022-12-07T09:14:15;18.95;;;7.30;;
68523;SDS011;55524;51.380;13.372;2022-12-07T09:16:42;14.77;;;6.75;;
68523;SDS011;55524;51.380;13.372;2022-12-07T09:19:14;13.98;;;6.22;;
68523;SDS011;55524;51.380;13.372;2022-12-07T09:21:40;13.18;;;6.35;;
68523;SDS011;55524;51.380;13.372;2022-12-07T09:24:15;11.60;;;5.95;;
68523;SDS011;55524;51.380;13.372;2022-12-07T09:26:42;14.85;;;6.50;;
68523;SDS011;55524;51.380;13.372;2022-12-07T09:29:09;16.58;;;6.88;;
68523;SDS011;55524;51.380;13.372;2022-12-07T09:31:41;13.05;;;6.63;;
68523;SDS011;55524;51.380;13.372;2022-12-07T09:34:16;13.57;;;6.20;;
68523;SDS011;55524;51.380;13.372;2022-12-07T09:36:43;16.63;;;6.82;;
68523;SDS011;55524;51.380;13.372;2022-12-07T09:39:10;14.88;;;6.00;;
68523;SDS011;55524;51.380;13.372;2022-12-07T09:41:48;14.00;;;6.57;;
68523;SDS011;55524;51.380;13.372;2022-12-07T09:44:20;13.55;;;6.82;;
68523;SDS011;55524;51.380;13.372;2022-12-07T09:47:10;10.90;;;6.00;;
68523;SDS011;55524;51.380;13.372;2022-12-07T09:49:45;15.77;;;7.13;;
68523;SDS011;55524;51.380;13.372;2022-12-07T09:52:26;16.80;;;6.88;;
68523;SDS011;55524;51.380;13.372;2022-12-07T09:54:53;14.38;;;7.22;;
68523;SDS011;55524;51.380;13.372;2022-12-07T09:57:29;16.55;;;7.40;;
68523;SDS011;55524;51.380;13.372;2022-12-07T10:00:21;14.88;;;7.22;;
68523;SDS011;55524;51.380;13.372;2022-12-07T10:03:02;15.48;;;7.00;;
68523;SDS011;55524;51.380;13.372;2022-12-07T10:05:30;12.68;;;6.22;;
68523;SDS011;55524;51.380;13.372;2022-12-07T10:08:05;15.32;;;6.72;;
68523;SDS011;55524;51.380;13.372;2022-12-07T10:10:34;14.25;;;6.25;;
68523;SDS011;55524;51.380;13.372;2022-12-07T10:13:33;15.40;;;6.25;;
68523;SDS011;55524;51.380;13.372;2022-12-07T10:16:01;14.23;;;6.10;;
68523;SDS011;55524;51.380;13.372;2022-12-07T10:26:34;16.67;;;5.90;;
68523;SDS011;55524;51.380;13.372;2022-12-07T10:31:57;11.98;;;5.32;;
68523;SDS011;55524;51.380;13.372;2022-12-07T10:34:37;9.02;;;4.88;;
68523;SDS011;55524;51.380;13.372;2022-12-07T10:39:55;7.82;;;4.68;;
68523;SDS011;55524;51.380;13.372;2022-12-07T10:42:29;7.70;;;4.07;;
68523;SDS011;55524;51.380;13.372;2022-12-07T10:47:38;8.85;;;4.40;;
68523;SDS011;55524;51.380;13.372;2022-12-07T10:50:39;7.65;;;4.95;;
68523;SDS011;55524;51.380;13.372;2022-12-07T11:05:02;3.35;;;1.90;;
68523;SDS011;55524;51.380;13.372;2022-12-07T11:10:18;2.03;;;1.27;;
68523;SDS011;55524;51.380;13.372;2022-12-07T11:18:31;1.70;;;1.60;;
68523;SDS011;55524;51.380;13.372;2022-12-07T11:24:20;2.47;;;1.30;;
68523;SDS011;55524;51.380;13.372;2022-12-07T11:30:08;3.35;;;1.60;;
68523;SDS011;55524;51.380;13.372;2022-12-07T11:38:11;1.27;;;1.02;;
68523;SDS011;55524;51.380;13.372;2022-12-07T11:40:39;14.27;;;1.40;;
68523;SDS011;55524;51.380;13.372;2022-12-07T11:43:37;2.63;;;0.93;;
68523;SDS011;55524;51.380;13.372;2022-12-07T11:46:15;0.95;;;0.85;;
68523;SDS011;55524;51.380;13.372;2022-12-07T11:48:46;0.85;;;0.85;;
68523;SDS011;55524;51.380;13.372;2022-12-07T11:51:23;0.70;;;0.70;;
68523;SDS011;55524;51.380;13.372;2022-12-07T11:57:33;3.80;;;1.60;;
68523;SDS011;55524;51.380;13.372;2022-12-07T12:00:16;14.45;;;3.67;;
68523;SDS011;55524;51.380;13.372;2022-12-07T12:02:49;2.65;;;1.95;;
68523;SDS011;55524;51.380;13.372;2022-12-07T12:05:50;2.47;;;1.90;;
68523;SDS011;55524;51.380;13.372;2022-12-07T12:08:48;2.60;;;1.77;;
68523;SDS011;55524;51.380;13.372;2022-12-07T12:21:13;5.45;;;2.20;;
68523;SDS011;55524;51.380;13.372;2022-12-07T12:26:25;5.97;;;2.50;;
68523;SDS011;55524;51.380;13.372;2022-12-07T12:32:40;3.28;;;2.20;;
68523;SDS011;55524;51.380;13.372;2022-12-07T12:35:28;5.57;;;2.53;;
68523;SDS011;55524;51.380;13.372;2022-12-07T12:46:57;3.78;;;3.30;;
68523;SDS011;55524;51.380;13.372;2022-12-07T12:49:35;5.22;;;3.22;;
68523;SDS011;55524;51.380;13.372;2022-12-07T12:52:45;6.75;;;2.97;;
68523;SDS011;55524;51.380;13.372;2022-12-07T12:55:17;6.68;;;3.35;;
68523;SDS011;55524;51.380;13.372;2022-12-07T13:00:47;5.60;;;3.50;;
68523;SDS011;55524;51.380;13.372;2022-12-07T13:03:35;5.28;;;3.30;;
68523;SDS011;55524;51.380;13.372;2022-12-07T13:09:15;4.75;;;3.40;;
68523;SDS011;55524;51.380;13.372;2022-12-07T13:12:11;6.20;;;3.70;;
68523;SDS011;55524;51.380;13.372;2022-12-07T13:28:31;5.70;;;2.60;;
68523;SDS011;55524;51.380;13.372;2022-12-07T13:30:45;5.43;;;3.17;;
68523;SDS011;55524;51.380;13.372;2022-12-07T13:33:24;6.10;;;3.03;;
68523;SDS011;55524;51.380;13.372;2022-12-07T13:36:03;5.55;;;3.15;;
68523;SDS011;55524;51.380;13.372;2022-12-07T13:38:59;4.60;;;3.15;;
68523;SDS011;55524;51.380;13.372;2022-12-07T13:41:41;4.18;;;3.03;;
68523;SDS011;55524;51.380;13.372;2022-12-07T13:44:15;7.05;;;3.13;;
68523;SDS011;55524;51.380;13.372;2022-12-07T13:49:51;4.60;;;2.45;;
68523;SDS011;55524;51.380;13.372;2022-12-07T13:52:29;4.65;;;2.63;;
68523;SDS011;55524;51.380;13.372;2022-12-07T13:57:33;3.90;;;2.50;;
68523;SDS011;55524;51.380;13.372;2022-12-07T14:00:28;6.53;;;2.83;;
68523;SDS011;55524;51.380;13.372;2022-12-07T14:05:38;4.80;;;2.60;;
68523;SDS011;55524;51.380;13.372;2022-12-07T14:10:52;8.18;;;2.47;;
68523;SDS011;55524;51.380;13.372;2022-12-07T14:16:22;3.35;;;2.40;;
68523;SDS011;55524;51.380;13.372;2022-12-07T14:18:48;5.70;;;2.55;;
68523;SDS011;55524;51.380;13.372;2022-12-07T14:21:22;3.22;;;2.30;;
68523;SDS011;55524;51.380;13.372;2022-12-07T14:24:04;6.20;;;2.42;;
68523;SDS011;55524;51.380;13.372;2022-12-07T14:26:37;4.82;;;2.30;;
68523;SDS011;55524;51.380;13.372;2022-12-07T14:31:56;2.40;;;1.50;;
68523;SDS011;55524;51.380;13.372;2022-12-07T14:37:29;1.30;;;1.20;;
68523;SDS011;55524;51.380;13.372;2022-12-07T14:40:01;1.27;;;1.20;;
68523;SDS011;55524;51.380;13.372;2022-12-07T14:42:50;1.70;;;1.60;;
68523;SDS011;55524;51.380;13.372;2022-12-07T14:45:46;5.32;;;2.42;;
68523;SDS011;55524;51.380;13.372;2022-12-07T14:48:28;5.10;;;2.63;;
68523;SDS011;55524;51.380;13.372;2022-12-07T14:51:14;3.88;;;2.78;;
68523;SDS011;55524;51.380;13.372;2022-12-07T14:53:53;5.03;;;2.95;;
68523;SDS011;55524;51.380;13.372;2022-12-07T14:56:58;9.93;;;3.63;;
68523;SDS011;55524;51.380;13.372;2022-12-07T14:59:53;4.70;;;3.47;;
68523;SDS011;55524;51.380;13.372;2022-12-07T15:02:20;4.82;;;3.90;;
68523;SDS011;55524;51.380;13.372;2022-12-07T15:04:46;4.45;;;3.97;;
68523;SDS011;55524;51.380;13.372;2022-12-07T15:07:30;8.18;;;3.88;;
68523;SDS011;55524;51.380;13.372;2022-12-07T15:13:01;4.38;;;3.78;;
68523;SDS011;55524;51.380;13.372;2022-12-07T15:16:10;6.10;;;3.95;;
68523;SDS011;55524;51.380;13.372;2022-12-07T15:22:09;6.68;;;3.40;;
68523;SDS011;55524;51.380;13.372;2022-12-07T15:24:44;6.72;;;3.47;;
68523;SDS011;55524;51.380;13.372;2022-12-07T15:27:13;6.00;;;3.35;;
68523;SDS011;55524;51.380;13.372;2022-12-07T15:30:00;8.50;;;3.67;;
68523;SDS011;55524;51.380;13.372;2022-12-07T15:32:48;3.05;;;2.67;;
68523;SDS011;55524;51.380;13.372;2022-12-07T15:35:15;5.97;;;3.05;;
68523;SDS011;55524;51.380;13.372;2022-12-07T15:38:04;5.35;;;2.80;;
68523;SDS011;55524;51.380;13.372;2022-12-07T15:40:42;4.68;;;2.75;;
68523;SDS011;55524;51.380;13.372;2022-12-07T15:43:24;2.72;;;2.53;;
68523;SDS011;55524;51.380;13.372;2022-12-07T15:46:17;7.05;;;3.00;;
68523;SDS011;55524;51.380;13.372;2022-12-07T15:48:47;3.55;;;2.55;;
68523;SDS011;55524;51.380;13.372;2022-12-07T15:51:22;4.75;;;2.65;;
68523;SDS011;55524;51.380;13.372;2022-12-07T15:53:49;4.38;;;2.97;;
68523;SDS011;55524;51.380;13.372;2022-12-07T15:56:19;3.70;;;3.03;;
68523;SDS011;55524;51.380;13.372;2022-12-07T15:58:55;5.60;;;3.08;;
68523;SDS011;55524;51.380;13.372;2022-12-07T16:01:27;4.25;;;2.90;;
68523;SDS011;55524;51.380;13.372;2022-12-07T16:03:59;13.32;;;4.72;;
68523;SDS011;55524;51.380;13.372;2022-12-07T16:06:34;16.95;;;5.00;;
68523;SDS011;55524;51.380;13.372;2022-12-07T16:09:12;44.20;;;8.55;;
68523;SDS011;55524;51.380;13.372;2022-12-07T16:12:26;11.55;;;3.42;;
68523;SDS011;55524;51.380;13.372;2022-12-07T16:14:59;4.20;;;2.28;;
68523;SDS011;55524;51.380;13.372;2022-12-07T16:17:40;3.17;;;2.40;;
68523;SDS011;55524;51.380;13.372;2022-12-07T16:20:16;3.42;;;1.98;;
68523;SDS011;55524;51.380;13.372;2022-12-07T16:22:43;2.60;;;2.08;;
68523;SDS011;55524;51.380;13.372;2022-12-07T16:25:18;4.60;;;2.10;;
68523;SDS011;55524;51.380;13.372;2022-12-07T16:28:05;5.72;;;1.90;;
68523;SDS011;55524;51.380;13.372;2022-12-07T16:30:59;2.72;;;1.95;;
68523;SDS011;55524;51.380;13.372;2022-12-07T16:33:45;5.85;;;1.95;;
68523;SDS011;55524;51.380;13.372;2022-12-07T16:36:55;5.50;;;2.50;;
68523;SDS011;55524;51.380;13.372;2022-12-07T16:39:30;7.15;;;2.58;;
68523;SDS011;55524;51.380;13.372;2022-12-07T16:42:08;5.88;;;2.72;;
68523;SDS011;55524;51.380;13.372;2022-12-07T16:44:43;3.17;;;2.90;;
68523;SDS011;55524;51.380;13.372;2022-12-07T16:47:14;3.40;;;3.10;;
68523;SDS011;55524;51.380;13.372;2022-12-07T16:49:41;6.47;;;2.97;;
68523;SDS011;55524;51.380;13.372;2022-12-07T16:52:23;6.70;;;3.00;;
68523;SDS011;55524;51.380;13.372;2022-12-07T16:55:09;7.22;;;3.22;;
68523;SDS011;55524;51.380;13.372;2022-12-07T16:57:44;4.90;;;2.97;;
68523;SDS011;55524;51.380;13.372;2022-12-07T17:00:13;4.18;;;3.22;;
68523;SDS011;55524;51.380;13.372;2022-12-07T17:02:49;3.00;;;2.67;;
68523;SDS011;55524;51.380;13.372;2022-12-07T17:05:21;5.43;;;3.80;;
68523;SDS011;55524;51.380;13.372;2022-12-07T17:07:56;5.53;;;3.08;;
68523;SDS011;55524;51.380;13.372;2022-12-07T17:10:26;4.25;;;2.97;;
68523;SDS011;55524;51.380;13.372;2022-12-07T17:13:03;5.13;;;2.80;;
68523;SDS011;55524;51.380;13.372;2022-12-07T17:15:58;7.80;;;2.58;;
68523;SDS011;55524;51.380;13.372;2022-12-07T17:18:30;6.78;;;2.67;;
68523;SDS011;55524;51.380;13.372;2022-12-07T17:21:04;6.40;;;2.80;;
68523;SDS011;55524;51.380;13.372;2022-12-07T17:23:38;5.63;;;2.90;;
68523;SDS011;55524;51.380;13.372;2022-12-07T17:26:23;5.28;;;2.85;;
68523;SDS011;55524;51.380;13.372;2022-12-07T17:28:59;3.50;;;2.50;;
68523;SDS011;55524;51.380;13.372;2022-12-07T17:31:36;7.03;;;2.88;;
68523;SDS011;55524;51.380;13.372;2022-12-07T17:34:24;3.80;;;2.50;;
68523;SDS011;55524;51.380;13.372;2022-12-07T17:37:13;4.30;;;2.63;;
68523;SDS011;55524;51.380;13.372;2022-12-07T17:39:48;4.57;;;2.35;;
68523;SDS011;55524;51.380;13.372;2022-12-07T17:42:24;11.73;;;2.95;;
68523;SDS011;55524;51.380;13.372;2022-12-07T17:45:05;2.50;;;1.95;;
68523;SDS011;55524;51.380;13.372;2022-12-07T17:47:33;5.15;;;2.30;;
68523;SDS011;55524;51.380;13.372;2022-12-07T17:50:05;4.85;;;2.55;;
68523;SDS011;55524;51.380;13.372;2022-12-07T17:52:32;4.88;;;2.25;;
68523;SDS011;55524;51.380;13.372;2022-12-07T17:55:26;3.65;;;2.75;;
68523;SDS011;55524;51.380;13.372;2022-12-07T17:57:52;5.80;;;2.78;;
68523;SDS011;55524;51.380;13.372;2022-12-07T18:00:24;6.35;;;2.70;;
68523;SDS011;55524;51.380;13.372;2022-12-07T18:02:54;7.65;;;2.92;;
68523;SDS011;55524;51.380;13.372;2022-12-07T18:05:23;5.35;;;2.88;;
68523;SDS011;55524;51.380;13.372;2022-12-07T18:07:49;4.50;;;2.75;;
68523;SDS011;55524;51.380;13.372;2022-12-07T18:10:19;3.58;;;3.00;;
68523;SDS011;55524;51.380;13.372;2022-12-07T18:12:48;3.70;;;3.05;;
68523;SDS011;55524;51.380;13.372;2022-12-07T18:15:15;6.35;;;3.03;;
68523;SDS011;55524;51.380;13.372;2022-12-07T18:17:44;3.88;;;2.92;;
68523;SDS011;55524;51.380;13.372;2022-12-07T18:20:19;5.28;;;2.60;;
68523;SDS011;55524;51.380;13.372;2022-12-07T18:22:48;7.10;;;3.00;;
68523;SDS011;55524;51.380;13.372;2022-12-07T18:25:17;6.82;;;3.00;;
68523;SDS011;55524;51.380;13.372;2022-12-07T18:27:43;6.88;;;2.90;;
68523;SDS011;55524;51.380;13.372;2022-12-07T18:30:18;6.68;;;2.78;;
68523;SDS011;55524;51.380;13.372;2022-12-07T18:32:45;2.83;;;2.55;;
68523;SDS011;55524;51.380;13.372;2022-12-07T18:35:37;5.35;;;2.90;;
68523;SDS011;55524;51.380;13.372;2022-12-07T18:38:06;8.57;;;2.95;;
68523;SDS011;55524;51.380;13.372;2022-12-07T18:40:45;6.53;;;2.65;;
68523;SDS011;55524;51.380;13.372;2022-12-07T18:43:12;6.80;;;2.67;;
68523;SDS011;55524;51.380;13.372;2022-12-07T18:45:39;7.53;;;2.60;;
68523;SDS011;55524;51.380;13.372;2022-12-07T18:48:13;7.28;;;2.15;;
68523;SDS011;55524;51.380;13.372;2022-12-07T18:51:02;1.98;;;1.73;;
68523;SDS011;55524;51.380;13.372;2022-12-07T18:53:35;2.50;;;1.40;;
68523;SDS011;55524;51.380;13.372;2022-12-07T18:56:10;1.30;;;1.10;;
68523;SDS011;55524;51.380;13.372;2022-12-07T18:58:48;2.50;;;1.13;;
68523;SDS011;55524;51.380;13.372;2022-12-07T19:01:43;1.05;;;0.80;;
68523;SDS011;55524;51.380;13.372;2022-12-07T19:04:25;1.13;;;0.90;;
68523;SDS011;55524;51.380;13.372;2022-12-07T19:07:00;2.67;;;1.13;;
68523;SDS011;55524;51.380;13.372;2022-12-07T19:09:35;6.40;;;1.55;;
68523;SDS011;55524;51.380;13.372;2022-12-07T19:12:08;4.72;;;1.60;;
68523;SDS011;55524;51.380;13.372;2022-12-07T19:14:50;2.83;;;1.45;;
68523;SDS011;55524;51.380;13.372;2022-12-07T19:17:34;1.85;;;1.25;;
68523;SDS011;55524;51.380;13.372;2022-12-07T19:20:24;6.70;;;1.65;;
68523;SDS011;55524;51.380;13.372;2022-12-07T19:22:51;1.88;;;1.30;;
68523;SDS011;55524;51.380;13.372;2022-12-07T19:25:21;3.03;;;1.40;;
68523;SDS011;55524;51.380;13.372;2022-12-07T19:27:58;1.85;;;1.45;;
68523;SDS011;55524;51.380;13.372;2022-12-07T19:30:25;2.42;;;1.65;;
68523;SDS011;55524;51.380;13.372;2022-12-07T19:32:57;3.35;;;1.95;;
68523;SDS011;55524;51.380;13.372;2022-12-07T19:35:30;3.25;;;2.03;;
68523;SDS011;55524;51.380;13.372;2022-12-07T19:38:05;3.90;;;2.55;;
68523;SDS011;55524;51.380;13.372;2022-12-07T19:40:52;4.05;;;2.90;;
68523;SDS011;55524;51.380;13.372;2022-12-07T19:43:31;3.55;;;3.25;;
68523;SDS011;55524;51.380;13.372;2022-12-07T19:46:09;3.85;;;3.10;;
68523;SDS011;55524;51.380;13.372;2022-12-07T19:49:16;5.10;;;3.95;;
68523;SDS011;55524;51.380;13.372;2022-12-07T19:51:48;4.82;;;3.88;;
68523;SDS011;55524;51.380;13.372;2022-12-07T19:54:20;7.80;;;3.95;;
68523;SDS011;55524;51.380;13.372;2022-12-07T19:56:51;9.35;;;3.72;;
68523;SDS011;55524;51.380;13.372;2022-12-07T19:59:28;6.50;;;3.97;;
68523;SDS011;55524;51.380;13.372;2022-12-07T20:01:58;8.73;;;4.03;;
68523;SDS011;55524;51.380;13.372;2022-12-07T20:04:26;5.00;;;3.97;;
68523;SDS011;55524;51.380;13.372;2022-12-07T20:06:55;6.43;;;4.03;;
68523;SDS011;55524;51.380;13.372;2022-12-07T20:09:30;12.98;;;4.10;;
68523;SDS011;55524;51.380;13.372;2022-12-07T20:12:03;7.60;;;3.95;;
68523;SDS011;55524;51.380;13.372;2022-12-07T20:14:51;8.68;;;3.90;;
68523;SDS011;55524;51.380;13.372;2022-12-07T20:17:46;6.22;;;3.63;;
68523;SDS011;55524;51.380;13.372;2022-12-07T20:20:12;10.20;;;3.40;;
68523;SDS011;55524;51.380;13.372;2022-12-07T20:22:45;5.97;;;3.55;;
68523;SDS011;55524;51.380;13.372;2022-12-07T20:25:23;8.18;;;4.13;;
68523;SDS011;55524;51.380;13.372;2022-12-07T20:28:09;6.95;;;3.33;;
68523;SDS011;55524;51.380;13.372;2022-12-07T20:30:36;4.90;;;3.05;;
68523;SDS011;55524;51.380;13.372;2022-12-07T20:33:31;5.03;;;3.35;;
68523;SDS011;55524;51.380;13.372;2022-12-07T20:36:06;4.65;;;3.15;;
68523;SDS011;55524;51.380;13.372;2022-12-07T20:38:34;5.57;;;3.05;;
68523;SDS011;55524;51.380;13.372;2022-12-07T20:41:20;3.25;;;2.67;;
68523;SDS011;55524;51.380;13.372;2022-12-07T20:44:15;5.15;;;2.80;;
68523;SDS011;55524;51.380;13.372;2022-12-07T20:46:45;4.53;;;3.15;;